| time (UTC) | temp F | wind direction | speed MPH | gust MPH | rain 1hr in | rain 24hr in | rain mn in | humidity % | barometer mb |
| 20260508014528 | 90 | 163 | 2.0 | 7.0 | 0.00 | 0.00 | 0.00 | 10 | 1010.2 |
| 20260508013028 | 91 | 157 | 3.0 | 7.0 | 0.00 | 0.00 | 0.00 | 10 | 1010.2 |
| 20260508011528 | 91 | 194 | 4.0 | 10.0 | 0.00 | 0.00 | 0.00 | 9 | 1010.2 |
| 20260508010029 | 92 | 157 | 5.0 | 9.0 | 0.00 | 0.00 | 0.00 | 9 | 1010.2 |
| 20260508004530 | 92 | 132 | 1.0 | 5.0 | 0.00 | 0.00 | 0.00 | 7 | 1010.2 |
| 20260508003025 | 93 | 355 | 2.0 | 9.0 | 0.00 | 0.00 | 0.00 | 7 | 1010.2 |
| 20260508001540 | 93 | 296 | 4.0 | 9.0 | 0.00 | 0.00 | 0.00 | 7 | 1010.1 |
| 20260508000023 | 93 | 281 | 3.0 | 7.0 | 0.00 | 0.00 | 0.00 | 6 | 1010.2 |
| 20260507234523 | 94 | 17 | 1.0 | 7.0 | 0.00 | 0.00 | 0.00 | 7 | 1010.2 |
| 20260507233026 | 93 | 273 | 3.0 | 6.0 | 0.00 | 0.00 | 0.00 | 7 | 1010.4 |
| 20260507231523 | 93 | 155 | 2.0 | 4.0 | 0.00 | 0.00 | 0.00 | 7 | 1010.4 |
| 20260507230027 | 93 | 50 | 6.0 | 9.0 | 0.00 | 0.00 | 0.00 | 8 | 1010.5 |
| 20260507224527 | 94 | 302 | 3.0 | 8.0 | 0.00 | 0.00 | 0.00 | 8 | 1010.7 |
| 20260507223017 | 94 | 360 | 6.0 | 12.0 | 0.00 | 0.00 | 0.00 | 8 | 1010.9 |
| 20260507221522 | 94 | 267 | 3.0 | 15.0 | 0.00 | 0.00 | 0.00 | 8 | 1010.9 |
| 20260507220011 | 93 | 103 | 6.0 | 12.0 | 0.00 | 0.00 | 0.00 | 10 | 1011.1 |
| 20260507214510 | 92 | 80 | 6.0 | 10.0 | 0.00 | 0.00 | 0.00 | 11 | 1011.2 |
| 20260507213008 | 91 | 51 | 4.0 | 10.0 | 0.00 | 0.00 | 0.00 | 12 | 1011.5 |
| 20260507211514 | 91 | 218 | 6.0 | 9.0 | 0.00 | 0.00 | 0.00 | 13 | 1011.8 |
| 20260507210005 | 92 | 198 | 5.0 | 10.0 | 0.00 | 0.00 | 0.00 | 12 | 1012.1 |
| 20260507204501 | 90 | 209 | 3.0 | 5.0 | 0.00 | 0.00 | 0.00 | 12 | 1012.3 |
| 20260507203102 | 92 | 56 | 2.0 | 8.0 | 0.00 | 0.00 | 0.00 | 12 | 1012.5 |
| 20260507201557 | 89 | 259 | 2.0 | 6.0 | 0.00 | 0.00 | 0.00 | 12 | 1012.6 |
| 20260507200053 | 90 | 112 | 3.0 | 7.0 | 0.00 | 0.00 | 0.00 | 13 | 1013.0 |
| 20260507194552 | 90 | 55 | 1.0 | 5.0 | 0.00 | 0.00 | 0.00 | 13 | 1013.2 |
| 20260507193050 | 88 | 94 | 2.0 | 9.0 | 0.00 | 0.00 | 0.00 | 14 | 1013.5 |
| 20260507191547 | 89 | 360 | 2.0 | 9.0 | 0.00 | 0.00 | 0.00 | 14 | 1013.7 |
| 20260507190044 | 89 | 28 | 4.0 | 10.0 | 0.00 | 0.00 | 0.00 | 15 | 1014.0 |
| 20260507184541 | 87 | 360 | 1.0 | 9.0 | 0.00 | 0.00 | 0.00 | 16 | 1014.3 |
| 20260507183049 | 87 | 360 | 4.0 | 8.0 | 0.00 | 0.00 | 0.00 | 16 | 1014.5 |
| 20260507181533 | 85 | 360 | 0.0 | 9.0 | 0.00 | 0.00 | 0.00 | 18 | 1014.6 |
| 20260507180041 | 86 | 360 | 1.0 | 5.0 | 0.00 | 0.00 | 0.00 | 18 | 1014.8 |
| 20260507174526 | 85 | 360 | 0.0 | 4.0 | 0.00 | 0.00 | 0.00 | 20 | 1014.9 |
| 20260507173027 | 83 | 360 | 1.0 | 10.0 | 0.00 | 0.00 | 0.00 | 20 | 1015.1 |
| 20260507171518 | 82 | 360 | 2.0 | 8.0 | 0.00 | 0.00 | 0.00 | 21 | 1015.2 |
| 20260507170031 | 81 | 360 | 3.0 | 9.0 | 0.00 | 0.00 | 0.00 | 23 | 1015.4 |
| 20260507164510 | 81 | 360 | 3.0 | 10.0 | 0.00 | 0.00 | 0.00 | 22 | 1015.3 |
| 20260507163006 | 80 | 360 | 3.0 | 6.0 | 0.00 | 0.00 | 0.00 | 23 | 1015.4 |
| 20260507161505 | 78 | 360 | 5.0 | 10.0 | 0.00 | 0.00 | 0.00 | 26 | 1015.4 |
| 20260507160057 | 77 | 360 | 4.0 | 8.0 | 0.00 | 0.00 | 0.00 | 27 | 1015.6 |
| 20260507154555 | 75 | 360 | 4.0 | 8.0 | 0.00 | 0.00 | 0.00 | 28 | 1015.7 |
| 20260507153102 | 73 | 360 | 1.0 | 4.0 | 0.00 | 0.00 | 0.00 | 32 | 1015.8 |
| 20260507151546 | 70 | 360 | 0.0 | 2.0 | 0.00 | 0.00 | 0.00 | 33 | 1015.9 |
| 20260507150043 | 68 | 360 | 1.0 | 3.0 | 0.00 | 0.00 | 0.00 | 37 | 1015.8 |
| 20260507144543 | 66 | 360 | 1.0 | 4.0 | 0.00 | 0.00 | 0.00 | 40 | 1015.9 |
| 20260507143039 | 64 | 360 | 2.0 | 5.0 | 0.00 | 0.00 | 0.00 | 42 | 1016.0 |
| 20260507141536 | 62 | 360 | 1.0 | 4.0 | 0.00 | 0.00 | 0.00 | 50 | 1016.1 |
| 20260507140034 | 61 | 360 | 2.0 | 5.0 | 0.00 | 0.00 | 0.00 | 44 | 1015.9 |
| 20260507134525 | 61 | 360 | 1.0 | 3.0 | 0.00 | 0.00 | 0.00 | 45 | 1015.6 |
| 20260507133024 | 59 | 360 | 0.0 | 1.0 | 0.00 | 0.00 | 0.00 | 44 | 1015.5 |
| 20260507131523 | 57 | 360 | 0.0 | 4.0 | 0.00 | 0.00 | 0.00 | 47 | 1015.5 |
| 20260507130020 | 56 | 360 | 2.0 | 4.0 | 0.00 | 0.00 | 0.00 | 50 | 1015.3 |
| 20260507124517 | 58 | 360 | 1.0 | 3.0 | 0.00 | 0.00 | 0.00 | 51 | 1015.2 |
| 20260507123022 | 60 | 360 | 0.0 | 0.0 | 0.00 | 0.00 | 0.00 | 46 | 1015.0 |
| 20260507121515 | 58 | 360 | 0.0 | 0.0 | 0.00 | 0.00 | 0.00 | 49 | 1015.1 |
| 20260507120012 | 58 | 360 | 0.0 | 0.0 | 0.00 | 0.00 | 0.00 | 48 | 1015.2 |
| 20260507114509 | 60 | 360 | 0.0 | 0.0 | 0.00 | 0.00 | 0.00 | 45 | 1015.4 |
| 20260507113009 | 60 | 360 | 0.0 | 0.0 | 0.00 | 0.00 | 0.00 | 46 | 1015.4 |
| 20260507111513 | 60 | 360 | 0.0 | 0.0 | 0.00 | 0.00 | 0.00 | 47 | 1015.5 |
| 20260507110007 | 60 | 360 | 0.0 | 1.0 | 0.00 | 0.00 | 0.00 | 45 | 1015.4 |
| 20260507104506 | 60 | 360 | 1.0 | 3.0 | 0.00 | 0.00 | 0.00 | 45 | 1015.4 |
| 20260507103003 | 60 | 360 | 2.0 | 4.0 | 0.00 | 0.00 | 0.00 | 44 | 1015.5 |
| 20260507101600 | 62 | 360 | 0.0 | 0.0 | 0.00 | 0.00 | 0.00 | 39 | 1015.4 |
| 20260507100108 | 63 | 360 | 0.0 | 0.0 | 0.00 | 0.00 | 0.00 | 39 | 1015.4 |
| 20260507094553 | 65 | 360 | 0.0 | 1.0 | 0.00 | 0.00 | 0.00 | 35 | 1015.5 |
| 20260507093053 | 65 | 360 | 0.0 | 1.0 | 0.00 | 0.00 | 0.00 | 34 | 1015.5 |
| 20260507091549 | 67 | 360 | 0.0 | 0.0 | 0.00 | 0.00 | 0.00 | 29 | 1015.6 |
| 20260507090054 | 67 | 360 | 0.0 | 2.0 | 0.00 | 0.00 | 0.00 | 28 | 1015.6 |
| 20260507084548 | 68 | 360 | 0.0 | 4.0 | 0.00 | 0.00 | 0.00 | 29 | 1015.7 |
| 20260507083045 | 68 | 360 | 0.0 | 1.0 | 0.00 | 0.00 | 0.00 | 28 | 1015.8 |
| 20260507081541 | 69 | 360 | 1.0 | 4.0 | 0.00 | 0.00 | 0.00 | 26 | 1015.9 |
| 20260507080046 | 70 | 360 | 2.0 | 5.0 | 0.00 | 0.00 | 0.00 | 25 | 1016.0 |
| 20260507074539 | 70 | 360 | 3.0 | 5.0 | 0.00 | 0.00 | 0.00 | 26 | 1016.0 |
| 20260507073042 | 70 | 360 | 3.0 | 6.0 | 0.00 | 0.00 | 0.00 | 27 | 1016.0 |
| 20260507071538 | 69 | 360 | 2.0 | 6.0 | 0.00 | 0.00 | 0.00 | 27 | 1016.0 |
| 20260507070051 | 70 | 360 | 3.0 | 6.0 | 0.00 | 0.00 | 0.00 | 27 | 1016.1 |
| 20260507064537 | 70 | 360 | 3.0 | 5.0 | 0.00 | 0.00 | 0.00 | 27 | 1016.1 |
| 20260507063035 | 71 | 360 | 2.0 | 6.0 | 0.00 | 0.00 | 0.00 | 26 | 1016.1 |
| 20260507061531 | 71 | 360 | 2.0 | 8.0 | 0.00 | 0.00 | 0.00 | 25 | 1016.1 |
| 20260507060029 | 71 | 360 | 3.0 | 8.0 | 0.00 | 0.00 | 0.00 | 25 | 1016.1 |
| 20260507054528 | 71 | 360 | 2.0 | 8.0 | 0.00 | 0.00 | 0.00 | 25 | 1016.2 |
| 20260507053028 | 72 | 360 | 2.0 | 5.0 | 0.00 | 0.00 | 0.00 | 24 | 1016.1 |
| 20260507051527 | 72 | 360 | 2.0 | 5.0 | 0.00 | 0.00 | 0.00 | 25 | 1016.0 |
| 20260507050039 | 72 | 360 | 1.0 | 5.0 | 0.00 | 0.00 | 0.00 | 25 | 1015.9 |
| 20260507044525 | 72 | 360 | 2.0 | 4.0 | 0.00 | 0.00 | 0.00 | 24 | 1015.9 |
| 20260507043025 | 73 | 360 | 1.0 | 8.0 | 0.00 | 0.00 | 0.00 | 23 | 1015.8 |
| 20260507041525 | 74 | 360 | 3.0 | 8.0 | 0.00 | 0.00 | 0.00 | 23 | 1015.7 |
| 20260507040023 | 74 | 360 | 2.0 | 6.0 | 0.00 | 0.00 | 0.00 | 23 | 1015.5 |
| 20260507034523 | 75 | 360 | 2.0 | 5.0 | 0.00 | 0.00 | 0.00 | 24 | 1015.3 |
| 20260507033023 | 76 | 360 | 3.0 | 5.0 | 0.00 | 0.00 | 0.00 | 23 | 1015.2 |
| 20260507031523 | 77 | 360 | 2.0 | 4.0 | 0.00 | 0.00 | 0.00 | 23 | 1015.1 |
| 20260507030022 | 78 | 360 | 1.0 | 4.0 | 0.00 | 0.00 | 0.00 | 23 | 1014.8 |
| 20260507024521 | 78 | 360 | 1.0 | 3.0 | 0.00 | 0.00 | 0.00 | 25 | 1014.7 |
| 20260507023021 | 80 | 360 | 1.0 | 3.0 | 0.00 | 0.00 | 0.00 | 21 | 1014.5 |
| 20260507021528 | 80 | 360 | 1.0 | 4.0 | 0.00 | 0.00 | 0.00 | 20 | 1014.4 |
| 20260507020019 | 81 | 360 | 2.0 | 4.0 | 0.00 | 0.00 | 0.00 | 20 | 1014.3 |